createdAt,value
2018-10-09T14:24:58.219Z,1031.94
2018-10-09T14:25:58.217Z,1031.98
2018-10-09T14:26:58.216Z,1031.98
2018-10-09T14:27:58.214Z,1032
2018-10-09T14:28:58.212Z,1031.99
2018-10-09T14:29:58.211Z,1032
2018-10-09T14:30:58.214Z,1031.99
2018-10-09T14:31:58.206Z,1031.99
2018-10-09T14:32:58.205Z,1032.01
2018-10-09T14:33:58.203Z,1031.99
2018-10-09T14:34:58.294Z,1032.01
2018-10-09T14:35:58.199Z,1032.09
2018-10-09T14:36:58.204Z,1032.07
2018-10-09T14:37:58.195Z,1032.11
2018-10-09T14:38:58.193Z,1032.14
2018-10-09T14:39:58.193Z,1032.15
2018-10-09T14:40:58.190Z,1032.13
2018-10-09T14:41:58.188Z,1032.17
2018-10-09T14:42:58.185Z,1032.19
2018-10-09T14:43:58.304Z,1032.18
2018-10-09T14:44:58.183Z,1032.17
2018-10-09T14:45:58.180Z,1032.22
2018-10-09T14:46:58.181Z,1032.19
2018-10-09T14:47:58.177Z,1032.27
2018-10-09T14:48:58.174Z,1032.29
2018-10-09T14:49:58.171Z,1032.28
2018-10-09T14:50:58.169Z,1032.29
2018-10-09T14:51:58.168Z,1032.33
2018-10-09T14:52:58.166Z,1032.29
2018-10-09T14:53:58.161Z,1032.31
2018-10-09T14:54:58.160Z,1032.35
2018-10-09T14:55:58.159Z,1032.36
2018-10-09T14:56:58.155Z,1032.35
2018-10-09T14:57:58.154Z,1032.38
2018-10-09T14:58:58.152Z,1032.38
2018-10-09T14:59:58.150Z,1032.46
2018-10-09T15:00:58.153Z,1032.5
2018-10-09T15:01:58.143Z,1032.59
2018-10-09T15:02:58.145Z,1032.67
2018-10-09T15:03:58.139Z,1032.67
2018-10-09T15:04:58.135Z,1032.74
2018-10-09T15:05:58.134Z,1032.83
2018-10-09T15:06:58.130Z,1032.84
2018-10-09T15:07:58.126Z,1032.91
2018-10-09T15:08:58.124Z,1032.96
2018-10-09T15:09:58.122Z,1032.99
2018-10-09T15:10:58.120Z,1033.03
2018-10-09T15:11:58.118Z,1033.04
2018-10-09T15:12:58.114Z,1033.08
2018-10-09T15:13:58.111Z,1033.12
2018-10-09T15:14:58.108Z,1033.13
2018-10-09T15:15:58.104Z,1033.13
2018-10-09T15:16:58.116Z,1033.14
2018-10-09T15:17:58.100Z,1033.18
2018-10-09T15:18:58.096Z,1033.17
2018-10-09T15:19:58.093Z,1033.19
2018-10-09T15:20:58.091Z,1033.21
2018-10-09T15:21:58.088Z,1033.22
2018-10-09T15:22:58.083Z,1033.25
2018-10-09T15:23:58.079Z,1033.31
2018-10-09T15:24:58.076Z,1033.28
2018-10-09T15:25:58.075Z,1033.36
2018-10-09T15:26:58.071Z,1033.47
2018-10-09T15:27:58.081Z,1033.5
2018-10-09T15:28:58.125Z,1033.52
2018-10-09T15:29:58.060Z,1033.52
2018-10-09T15:30:58.057Z,1033.58
2018-10-09T15:31:58.054Z,1033.6
2018-10-09T15:32:58.055Z,1033.62
2018-10-09T15:33:58.047Z,1033.64
2018-10-09T15:34:58.045Z,1033.66
2018-10-09T15:35:58.041Z,1033.67
2018-10-09T15:36:58.038Z,1033.68
2018-10-09T15:37:58.037Z,1033.74
2018-10-09T15:38:58.029Z,1033.73
2018-10-09T15:39:58.027Z,1033.82
2018-10-09T15:40:58.038Z,1033.83
2018-10-09T15:41:58.019Z,1033.87
2018-10-09T15:42:58.015Z,1033.91
2018-10-09T15:43:58.013Z,1033.94
2018-10-09T15:44:58.010Z,1033.97
2018-10-09T15:45:58.004Z,1034.02
2018-10-09T15:46:58.000Z,1034.06
2018-10-09T15:47:57.998Z,1034.09
2018-10-09T15:48:57.992Z,1034.11
2018-10-09T15:49:57.989Z,1034.14
2018-10-09T15:50:57.990Z,1034.17
2018-10-09T15:51:57.981Z,1034.19
2018-10-09T15:52:57.978Z,1034.32
2018-10-09T15:53:57.974Z,1034.32
2018-10-09T15:54:57.970Z,1034.35
2018-10-09T15:55:57.964Z,1034.33
2018-10-09T15:56:57.960Z,1034.34
2018-10-09T15:57:57.959Z,1034.34
2018-10-09T15:58:57.953Z,1034.41
2018-10-09T15:59:57.949Z,1034.44
2018-10-09T16:00:57.945Z,1034.44
2018-10-09T16:01:57.941Z,1034.47
2018-10-09T16:02:57.936Z,1034.53
2018-10-09T16:03:57.993Z,1034.56
2018-10-09T16:04:57.928Z,1034.6
2018-10-09T16:05:57.923Z,1034.61
2018-10-09T16:06:57.920Z,1034.65
2018-10-09T16:07:57.917Z,1034.73
2018-10-09T16:08:57.912Z,1034.72
2018-10-09T16:09:57.906Z,1034.84
2018-10-09T16:10:57.901Z,1034.87
2018-10-09T16:11:57.898Z,1034.91
2018-10-09T16:12:57.894Z,1034.92
2018-10-09T16:13:57.889Z,1034.95
2018-10-09T16:14:57.884Z,1034.99
2018-10-09T16:15:57.879Z,1035.02
2018-10-09T16:16:57.876Z,1035.02
2018-10-09T16:17:57.870Z,1035.04
2018-10-09T16:18:57.866Z,1035.05
2018-10-09T16:19:57.859Z,1035.12
2018-10-09T16:20:57.855Z,1035.12
2018-10-09T16:21:57.850Z,1035.16
2018-10-09T16:22:57.844Z,1035.18
2018-10-09T16:23:57.840Z,1035.18
2018-10-09T16:24:57.835Z,1035.19
2018-10-09T16:25:57.830Z,1035.21
2018-10-09T16:26:57.825Z,1035.21
2018-10-09T16:27:57.820Z,1035.23
2018-10-09T16:28:57.815Z,1035.24
2018-10-09T16:29:57.809Z,1035.24
2018-10-09T16:30:57.804Z,1035.26
2018-10-09T16:31:57.799Z,1035.27
2018-10-09T16:32:57.793Z,1035.3
2018-10-09T16:33:57.790Z,1035.29
2018-10-09T16:34:57.788Z,1035.33
2018-10-09T16:35:57.778Z,1035.36
2018-10-09T16:36:57.772Z,1035.37
2018-10-09T16:37:57.767Z,1035.37
2018-10-09T16:38:57.762Z,1035.41
2018-10-09T16:39:57.757Z,1035.42
2018-10-09T16:40:57.755Z,1035.5
2018-10-09T16:41:57.746Z,1035.5
2018-10-09T16:42:57.743Z,1035.56
2018-10-09T16:43:57.736Z,1035.63
2018-10-09T16:44:57.729Z,1035.66
2018-10-09T16:45:57.724Z,1035.67
2018-10-09T16:46:57.718Z,1035.67
2018-10-09T16:47:57.711Z,1035.72
2018-10-09T16:48:57.707Z,1035.74
2018-10-09T16:49:57.702Z,1035.76
2018-10-09T16:50:57.697Z,1035.81
2018-10-09T16:51:57.689Z,1035.78
2018-10-09T16:52:57.684Z,1035.81
2018-10-09T16:53:57.677Z,1035.85
2018-10-09T16:54:57.671Z,1035.86
2018-10-09T16:55:57.666Z,1035.88
2018-10-09T16:56:57.660Z,1035.9
2018-10-09T16:57:57.653Z,1035.94
2018-10-09T16:58:57.651Z,1035.96
2018-10-09T16:59:57.643Z,1035.97
2018-10-09T17:00:57.638Z,1036.02
2018-10-09T17:01:57.631Z,1036
2018-10-09T17:02:57.624Z,1036.03
2018-10-09T17:03:57.619Z,1036.04
2018-10-09T17:04:57.613Z,1036.06
2018-10-09T17:05:57.607Z,1036.11
2018-10-09T17:06:57.601Z,1036.13
2018-10-09T17:07:57.595Z,1036.12
2018-10-09T17:08:57.589Z,1036.16
2018-10-09T17:09:57.583Z,1036.18
2018-10-09T17:10:57.577Z,1036.2
2018-10-09T17:11:57.571Z,1036.22
2018-10-09T17:12:57.565Z,1036.21
2018-10-09T17:13:57.557Z,1036.22
2018-10-09T17:14:57.552Z,1036.25
2018-10-09T17:15:57.544Z,1036.28
2018-10-09T17:16:57.538Z,1036.3
2018-10-09T17:17:57.532Z,1036.33
2018-10-09T17:18:57.526Z,1036.33
2018-10-09T17:19:57.521Z,1036.32
2018-10-09T17:20:57.513Z,1036.33
2018-10-09T17:21:57.507Z,1036.34
2018-10-09T17:22:57.500Z,1036.32
2018-10-09T17:23:57.497Z,1036.32
2018-10-09T17:24:57.490Z,1036.34
2018-10-09T17:25:57.481Z,1036.38
2018-10-09T17:26:57.521Z,1036.35
2018-10-09T17:27:57.467Z,1036.4
2018-10-09T17:28:57.461Z,1036.44
2018-10-09T17:29:57.458Z,1036.47
2018-10-09T17:30:57.453Z,1036.49
2018-10-09T17:31:57.443Z,1036.53
2018-10-09T17:32:57.470Z,1036.54
2018-10-09T17:33:57.429Z,1036.57
2018-10-09T17:34:57.423Z,1036.64
2018-10-09T17:35:57.421Z,1036.67
2018-10-09T17:36:57.418Z,1036.65
2018-10-09T17:37:57.405Z,1036.66
2018-10-09T17:38:57.396Z,1036.68
2018-10-09T17:39:57.393Z,1036.7
2018-10-09T17:40:57.386Z,1036.69
2018-10-09T17:41:57.380Z,1036.72
2018-10-09T17:42:57.372Z,1036.73
2018-10-09T17:43:57.371Z,1036.76
2018-10-09T17:44:57.357Z,1036.77
2018-10-09T17:45:57.351Z,1036.8
2018-10-09T17:46:57.448Z,1036.85
2018-10-09T17:47:57.338Z,1036.88
2018-10-09T17:48:57.330Z,1036.93
2018-10-09T17:49:57.324Z,1036.91
2018-10-09T17:50:57.317Z,1036.92
2018-10-09T17:51:57.315Z,1036.91
2018-10-09T17:52:57.303Z,1036.96
2018-10-09T17:53:57.298Z,1036.97
2018-10-09T17:54:57.290Z,1036.98
2018-10-09T17:55:57.283Z,1036.99
2018-10-09T17:56:57.277Z,1036.96
2018-10-09T17:57:57.270Z,1037.02
2018-10-09T17:58:57.264Z,1037.05
2018-10-09T17:59:57.256Z,1037.11
2018-10-09T18:00:57.250Z,1037.06
2018-10-09T18:01:57.244Z,1037.09
2018-10-09T18:02:57.236Z,1037.12
2018-10-09T18:03:57.226Z,1037.16
2018-10-09T18:04:57.221Z,1037.17
2018-10-09T18:05:57.215Z,1037.21
2018-10-09T18:06:57.209Z,1037.22
2018-10-09T18:07:57.200Z,1037.24
2018-10-09T18:08:57.267Z,1037.23
2018-10-09T18:09:57.185Z,1037.21
2018-10-09T18:10:57.177Z,1037.22
2018-10-09T18:11:57.170Z,1037.22
2018-10-09T18:12:57.163Z,1037.17
2018-10-09T18:13:57.158Z,1037.22
2018-10-09T18:14:57.195Z,1037.22
2018-10-09T18:15:57.147Z,1037.21
2018-10-09T18:16:57.135Z,1037.23
2018-10-09T18:17:57.127Z,1037.23
2018-10-09T18:18:57.121Z,1037.26
2018-10-09T18:19:57.112Z,1037.27
2018-10-09T18:20:57.106Z,1037.28
2018-10-09T18:21:57.097Z,1037.27
2018-10-09T18:22:57.090Z,1037.26
2018-10-09T18:23:57.085Z,1037.24
2018-10-09T18:24:57.076Z,1037.28
2018-10-09T18:25:57.069Z,1037.3
2018-10-09T18:26:57.061Z,1037.29
2018-10-09T18:27:57.055Z,1037.29
2018-10-09T18:28:57.048Z,1037.31
2018-10-09T18:29:57.039Z,1037.34
2018-10-09T18:30:57.032Z,1037.3
2018-10-09T18:31:57.026Z,1037.35
2018-10-09T18:32:57.261Z,1037.33
2018-10-09T18:33:57.009Z,1037.34
2018-10-09T18:34:57.002Z,1037.35
2018-10-09T18:35:56.993Z,1037.34
2018-10-09T18:36:56.985Z,1037.42
2018-10-09T18:37:56.980Z,1037.41
2018-10-09T18:38:56.972Z,1037.39
2018-10-09T18:39:56.963Z,1037.41
2018-10-09T18:40:57.039Z,1037.43
2018-10-09T18:41:57.014Z,1037.42
2018-10-09T18:42:56.940Z,1037.43
2018-10-09T18:43:56.954Z,1037.44
2018-10-09T18:44:56.924Z,1037.46
2018-10-09T18:45:56.917Z,1037.48
2018-10-09T18:46:56.910Z,1037.44
2018-10-09T18:47:56.901Z,1037.47
2018-10-09T18:48:56.899Z,1037.47
2018-10-09T18:49:56.889Z,1037.5
2018-10-09T18:50:56.879Z,1037.53
2018-10-09T18:51:56.871Z,1037.61
2018-10-09T18:52:56.863Z,1037.55
2018-10-09T18:53:56.856Z,1037.59
2018-10-09T18:54:56.847Z,1037.62
2018-10-09T18:55:56.839Z,1037.59
2018-10-09T18:56:56.833Z,1037.6
2018-10-09T18:57:56.825Z,1037.58
2018-10-09T18:58:56.816Z,1037.56
2018-10-09T18:59:56.809Z,1037.61
2018-10-09T19:00:56.800Z,1037.59
2018-10-09T19:01:56.790Z,1037.61
2018-10-09T19:02:56.783Z,1037.64
2018-10-09T19:03:56.776Z,1037.62
2018-10-09T19:04:56.770Z,1037.65
2018-10-09T19:05:56.760Z,1037.7
2018-10-09T19:06:56.753Z,1037.71
2018-10-09T19:07:56.744Z,1037.72
2018-10-09T19:08:56.737Z,1037.71
2018-10-09T19:09:56.730Z,1037.74
2018-10-09T19:10:56.797Z,1037.76
2018-10-09T19:11:56.717Z,1037.7
2018-10-09T19:12:56.705Z,1037.71
2018-10-09T19:13:56.698Z,1037.72
2018-10-09T19:14:56.689Z,1037.73
2018-10-09T19:15:56.682Z,1037.74
2018-10-09T19:16:56.673Z,1037.73
2018-10-09T19:17:56.758Z,1037.7
2018-10-09T19:18:56.658Z,1037.75
2018-10-09T19:19:56.649Z,1037.71
2018-10-09T19:20:56.641Z,1037.72
2018-10-09T19:21:56.634Z,1037.7
2018-10-09T19:22:56.629Z,1037.73
2018-10-09T19:23:56.695Z,1037.72
2018-10-09T19:24:56.610Z,1037.7
2018-10-09T19:25:56.601Z,1037.71
2018-10-09T19:26:56.596Z,1037.72
2018-10-09T19:27:56.587Z,1037.75
2018-10-09T19:28:56.577Z,1037.76
2018-10-09T19:29:56.569Z,1037.75
2018-10-09T19:30:56.560Z,1037.79
2018-10-09T19:31:56.552Z,1037.75
2018-10-09T19:32:56.543Z,1037.75
2018-10-09T19:33:56.537Z,1037.78
2018-10-09T19:34:56.527Z,1037.71
2018-10-09T19:35:56.519Z,1037.71
2018-10-09T19:36:56.511Z,1037.75
2018-10-09T19:37:56.503Z,1037.74
2018-10-09T19:38:56.494Z,1037.8
2018-10-09T19:39:56.486Z,1037.82
2018-10-09T19:40:56.478Z,1037.81
2018-10-09T19:41:56.469Z,1037.82
2018-10-09T19:42:56.462Z,1037.85
2018-10-09T19:43:56.455Z,1037.86
2018-10-09T19:44:56.446Z,1037.83
2018-10-09T19:45:56.438Z,1037.84
2018-10-09T19:46:56.430Z,1037.85
2018-10-09T19:47:56.421Z,1037.83
2018-10-09T19:48:56.414Z,1037.86
2018-10-09T19:49:56.405Z,1037.89
2018-10-09T19:50:56.564Z,1037.86
2018-10-09T19:51:56.387Z,1037.85
2018-10-09T19:52:56.379Z,1037.9
2018-10-09T19:53:56.371Z,1037.92
2018-10-09T19:54:56.363Z,1037.92
2018-10-09T19:55:56.354Z,1037.95
2018-10-09T19:56:56.345Z,1037.96
2018-10-09T19:57:56.338Z,1037.96
2018-10-09T19:58:56.330Z,1037.93
2018-10-09T19:59:56.321Z,1037.96
2018-10-09T20:00:56.315Z,1037.95
2018-10-09T20:01:56.306Z,1037.94
2018-10-09T20:02:56.297Z,1037.92
2018-10-09T20:03:56.287Z,1037.97
2018-10-09T20:04:56.281Z,1037.92
2018-10-09T20:05:56.270Z,1037.94
2018-10-09T20:06:56.266Z,1037.91
2018-10-09T20:07:56.254Z,1037.93
2018-10-09T20:08:56.247Z,1037.94
2018-10-09T20:09:56.237Z,1037.92
2018-10-09T20:10:56.234Z,1037.94
2018-10-09T20:11:56.224Z,1037.94
2018-10-09T20:12:56.212Z,1037.94
2018-10-09T20:13:56.204Z,1037.98
2018-10-09T20:14:56.194Z,1037.94
2018-10-09T20:15:56.190Z,1037.97
2018-10-09T20:16:56.180Z,1037.95
2018-10-09T20:17:56.171Z,1037.98
2018-10-09T20:18:56.162Z,1037.95
2018-10-09T20:19:56.153Z,1037.96
2018-10-09T20:20:56.217Z,1037.96
2018-10-09T20:21:56.135Z,1037.95
2018-10-09T20:22:56.132Z,1038
2018-10-09T20:23:56.118Z,1037.99
2018-10-09T20:24:56.110Z,1038
2018-10-09T20:25:56.101Z,1038.06
2018-10-09T20:26:56.093Z,1038.03
2018-10-09T20:27:56.084Z,1038.01
2018-10-09T20:28:56.076Z,1038.07
2018-10-09T20:29:56.067Z,1038.11
2018-10-09T20:30:56.058Z,1038.09
2018-10-09T20:31:56.052Z,1038.14
2018-10-09T20:32:56.041Z,1038.13
2018-10-09T20:33:56.057Z,1038.16
2018-10-09T20:34:56.025Z,1038.17
2018-10-09T20:35:56.017Z,1038.17
2018-10-09T20:36:56.008Z,1038.18
2018-10-09T20:37:55.999Z,1038.2
2018-10-09T20:38:56.032Z,1038.18
2018-10-09T20:39:55.983Z,1038.19
2018-10-09T20:40:55.974Z,1038.18
2018-10-09T20:41:56.036Z,1038.18
2018-10-09T20:42:55.957Z,1038.21
2018-10-09T20:43:55.948Z,1038.19
2018-10-09T20:44:55.940Z,1038.25
2018-10-09T20:45:55.932Z,1038.24
2018-10-09T20:46:55.924Z,1038.25
2018-10-09T20:47:55.913Z,1038.24
2018-10-09T20:48:55.906Z,1038.22
2018-10-09T20:49:55.902Z,1038.24
2018-10-09T20:50:55.889Z,1038.3
2018-10-09T20:51:55.879Z,1038.27
2018-10-09T20:52:55.871Z,1038.28
2018-10-09T20:53:55.863Z,1038.26
2018-10-09T20:54:55.852Z,1038.29
2018-10-09T20:55:55.844Z,1038.3
2018-10-09T20:56:55.836Z,1038.27
2018-10-09T20:57:55.827Z,1038.29
2018-10-09T20:58:55.819Z,1038.29
2018-10-09T20:59:55.809Z,1038.27
2018-10-09T21:00:55.809Z,1038.28
2018-10-09T21:01:55.792Z,1038.28
2018-10-09T21:02:55.783Z,1038.26
2018-10-09T21:03:55.775Z,1038.28
2018-10-09T21:04:55.766Z,1038.24
2018-10-09T21:05:55.805Z,1038.24
2018-10-09T21:06:55.747Z,1038.24
2018-10-09T21:07:55.741Z,1038.29
2018-10-09T21:08:55.735Z,1038.25
2018-10-09T21:09:55.722Z,1038.26
2018-10-09T21:10:55.716Z,1038.27
2018-10-09T21:11:55.706Z,1038.26
2018-10-09T21:12:55.697Z,1038.29
2018-10-09T21:13:55.687Z,1038.3
2018-10-09T21:14:55.679Z,1038.29
2018-10-09T21:15:55.669Z,1038.33
2018-10-09T21:16:55.662Z,1038.27
2018-10-09T21:17:55.732Z,1038.29
2018-10-09T21:18:55.643Z,1038.3
2018-10-09T21:19:55.634Z,1038.31
2018-10-09T21:20:55.629Z,1038.3
2018-10-09T21:21:55.616Z,1038.31
2018-10-09T21:22:55.609Z,1038.36
2018-10-09T21:23:55.600Z,1038.33
2018-10-09T21:24:55.590Z,1038.31
2018-10-09T21:25:55.581Z,1038.32
2018-10-09T21:26:55.572Z,1038.33
2018-10-09T21:27:55.565Z,1038.32
2018-10-09T21:28:55.557Z,1038.35
2018-10-09T21:29:55.642Z,1038.34
2018-10-09T21:30:55.538Z,1038.3
2018-10-09T21:31:55.529Z,1038.3
2018-10-09T21:32:55.520Z,1038.34
2018-10-09T21:33:55.512Z,1038.34
2018-10-09T21:34:55.506Z,1038.3
2018-10-09T21:35:55.493Z,1038.33
2018-10-09T21:36:55.485Z,1038.36
2018-10-09T21:37:55.477Z,1038.35
2018-10-09T21:38:55.467Z,1038.38
2018-10-09T21:39:55.458Z,1038.41
2018-10-09T21:40:55.450Z,1038.38
2018-10-09T21:41:55.441Z,1038.38
2018-10-09T21:42:55.432Z,1038.4
2018-10-09T21:43:55.423Z,1038.43
2018-10-09T21:44:55.413Z,1038.45
2018-10-09T21:45:55.406Z,1038.45
2018-10-09T21:46:55.397Z,1038.42
2018-10-09T21:47:55.386Z,1038.47
2018-10-09T21:48:55.377Z,1038.42
2018-10-09T21:49:55.372Z,1038.47
2018-10-09T21:50:55.360Z,1038.46
2018-10-09T21:51:55.351Z,1038.44
2018-10-09T21:52:55.342Z,1038.45
2018-10-09T21:53:55.333Z,1038.46
2018-10-09T21:54:55.324Z,1038.49
2018-10-09T21:55:55.315Z,1038.46
2018-10-09T21:56:55.307Z,1038.49
2018-10-09T21:57:55.297Z,1038.5
2018-10-09T21:58:55.288Z,1038.48
2018-10-09T21:59:55.281Z,1038.5
2018-10-09T22:00:55.270Z,1038.54
2018-10-09T22:01:55.262Z,1038.53
2018-10-09T22:02:55.252Z,1038.53
2018-10-09T22:03:55.245Z,1038.54
2018-10-09T22:04:55.234Z,1038.55
2018-10-09T22:05:55.226Z,1038.56
2018-10-09T22:06:55.217Z,1038.57
2018-10-09T22:07:55.207Z,1038.57
2018-10-09T22:08:55.199Z,1038.61
2018-10-09T22:09:55.190Z,1038.58
2018-10-09T22:10:55.180Z,1038.59
2018-10-09T22:11:55.170Z,1038.6
2018-10-09T22:12:55.167Z,1038.61
2018-10-09T22:13:55.153Z,1038.62
2018-10-09T22:14:55.144Z,1038.6
2018-10-09T22:15:55.135Z,1038.68
2018-10-09T22:16:55.126Z,1038.64
2018-10-09T22:17:55.117Z,1038.66
2018-10-09T22:18:55.109Z,1038.61
2018-10-09T22:19:55.105Z,1038.63
2018-10-09T22:20:55.092Z,1038.63
2018-10-09T22:21:55.085Z,1038.63
2018-10-09T22:22:55.075Z,1038.62
2018-10-09T22:23:55.064Z,1038.61
2018-10-09T22:24:55.056Z,1038.59
2018-10-09T22:25:55.047Z,1038.6
2018-10-09T22:26:55.037Z,1038.66
2018-10-09T22:27:55.029Z,1038.65
2018-10-09T22:28:55.022Z,1038.65
2018-10-09T22:29:55.013Z,1038.64
2018-10-09T22:30:55.003Z,1038.63
2018-10-09T22:31:54.997Z,1038.67
2018-10-09T22:32:54.989Z,1038.66
2018-10-09T22:33:54.981Z,1038.62
2018-10-09T22:34:54.969Z,1038.65
2018-10-09T22:35:54.958Z,1038.66
2018-10-09T22:36:54.949Z,1038.65
2018-10-09T22:37:54.941Z,1038.64
2018-10-09T22:38:54.934Z,1038.64
2018-10-09T22:39:54.921Z,1038.6
2018-10-09T22:40:54.912Z,1038.59
2018-10-09T22:41:54.903Z,1038.55
2018-10-09T22:42:55.144Z,1038.62
2018-10-09T22:43:54.923Z,1038.59
2018-10-09T22:44:54.875Z,1038.61
2018-10-09T22:45:54.865Z,1038.58
2018-10-09T22:46:54.858Z,1038.59
2018-10-09T22:47:54.853Z,1038.57
2018-10-09T22:48:54.840Z,1038.61
2018-10-09T22:49:54.830Z,1038.61
2018-10-09T22:50:54.821Z,1038.6
2018-10-09T22:51:54.812Z,1038.6
2018-10-09T22:52:54.802Z,1038.59
2018-10-09T22:53:54.794Z,1038.59
2018-10-09T22:54:54.783Z,1038.6
2018-10-09T22:55:54.778Z,1038.61
2018-10-09T22:56:54.766Z,1038.65
2018-10-09T22:57:54.760Z,1038.66
2018-10-09T22:58:54.748Z,1038.62
2018-10-09T22:59:54.739Z,1038.62
2018-10-09T23:00:54.729Z,1038.63
2018-10-09T23:01:54.720Z,1038.68
2018-10-09T23:02:54.712Z,1038.66
2018-10-09T23:03:54.704Z,1038.71
2018-10-09T23:04:54.694Z,1038.68
2018-10-09T23:05:54.684Z,1038.68
2018-10-09T23:06:54.675Z,1038.72
2018-10-09T23:07:54.664Z,1038.69
2018-10-09T23:08:54.655Z,1038.67
2018-10-09T23:09:54.647Z,1038.7
2018-10-09T23:10:54.636Z,1038.67
2018-10-09T23:11:54.628Z,1038.67
2018-10-09T23:12:54.618Z,1038.7
2018-10-09T23:13:54.610Z,1038.67
2018-10-09T23:14:54.596Z,1038.62
2018-10-09T23:15:54.592Z,1038.62
2018-10-09T23:16:54.580Z,1038.66
2018-10-09T23:17:54.569Z,1038.59
2018-10-09T23:18:54.565Z,1038.64
2018-10-09T23:19:54.552Z,1038.61
2018-10-09T23:20:54.543Z,1038.59
2018-10-09T23:21:54.535Z,1038.63
2018-10-09T23:22:54.523Z,1038.64
2018-10-09T23:23:54.516Z,1038.65
2018-10-09T23:24:54.505Z,1038.62
2018-10-09T23:25:54.496Z,1038.64
2018-10-09T23:26:54.487Z,1038.62
2018-10-09T23:27:54.479Z,1038.64
2018-10-09T23:28:54.469Z,1038.65
2018-10-09T23:29:54.460Z,1038.67
2018-10-09T23:30:54.451Z,1038.7
2018-10-09T23:31:54.441Z,1038.66
2018-10-09T23:32:54.431Z,1038.63
2018-10-09T23:33:54.423Z,1038.67
2018-10-09T23:34:54.414Z,1038.64
2018-10-09T23:35:54.402Z,1038.63
2018-10-09T23:36:54.393Z,1038.62
2018-10-09T23:37:54.385Z,1038.66
2018-10-09T23:38:54.377Z,1038.62
2018-10-09T23:39:54.366Z,1038.68
2018-10-09T23:40:54.358Z,1038.64
2018-10-09T23:41:54.353Z,1038.65
2018-10-09T23:42:54.341Z,1038.64
2018-10-09T23:43:54.330Z,1038.65
2018-10-09T23:44:54.320Z,1038.65
2018-10-09T23:45:54.311Z,1038.63
2018-10-09T23:46:54.302Z,1038.63
2018-10-09T23:47:54.294Z,1038.63
2018-10-09T23:48:54.285Z,1038.63
2018-10-09T23:49:54.277Z,1038.66
2018-10-09T23:50:54.266Z,1038.67
2018-10-09T23:51:54.256Z,1038.67
2018-10-09T23:52:54.249Z,1038.65
2018-10-09T23:53:54.239Z,1038.64
2018-10-09T23:54:54.229Z,1038.69
2018-10-09T23:55:54.222Z,1038.68
2018-10-09T23:56:54.211Z,1038.7
2018-10-09T23:57:54.202Z,1038.7
2018-10-09T23:58:54.192Z,1038.69
2018-10-09T23:59:54.183Z,1038.69
